createdAt,value
2023-03-02T00:01:55.767Z,10.47
2023-03-02T00:04:45.650Z,11.20
2023-03-02T00:07:16.316Z,11.52
2023-03-02T00:09:44.534Z,10.97
2023-03-02T00:12:12.605Z,10.70
2023-03-02T00:14:39.381Z,10.20
2023-03-02T00:17:10.434Z,11.10
2023-03-02T00:19:37.855Z,9.93
2023-03-02T00:22:05.123Z,10.97
2023-03-02T00:24:32.086Z,10.07
2023-03-02T00:27:01.267Z,10.90
2023-03-02T00:29:28.077Z,10.20
2023-03-02T00:31:57.263Z,10.03
2023-03-02T00:34:23.941Z,10.97
2023-03-02T00:36:50.672Z,11.93
2023-03-02T00:39:20.393Z,10.30
2023-03-02T00:41:48.314Z,9.40
2023-03-02T00:44:18.055Z,11.17
2023-03-02T00:46:47.460Z,11.37
2023-03-02T00:49:14.468Z,11.13
2023-03-02T00:51:41.176Z,11.00
2023-03-02T00:54:07.891Z,13.02
2023-03-02T00:56:34.783Z,12.20
2023-03-02T00:59:28.013Z,10.83
2023-03-02T01:02:02.578Z,11.70
2023-03-02T01:04:35.975Z,10.93
2023-03-02T01:07:07.496Z,11.40
2023-03-02T01:09:36.393Z,10.83
2023-03-02T01:12:03.737Z,10.47
2023-03-02T01:14:30.477Z,11.23
2023-03-02T01:16:57.159Z,10.73
2023-03-02T01:19:23.939Z,11.27
2023-03-02T01:21:50.721Z,10.47
2023-03-02T01:24:17.461Z,13.17
2023-03-02T01:26:44.196Z,11.20
2023-03-02T01:29:11.559Z,10.80
2023-03-02T01:31:38.982Z,11.40
2023-03-02T01:34:05.823Z,10.90
2023-03-02T01:36:35.338Z,10.93
2023-03-02T01:39:02.429Z,11.60
2023-03-02T01:41:29.231Z,11.77
2023-03-02T01:43:55.908Z,10.47
2023-03-02T01:46:28.559Z,10.77
2023-03-02T01:49:02.993Z,11.20
2023-03-02T01:51:34.565Z,10.67
2023-03-02T01:54:06.181Z,10.93
2023-03-02T01:56:37.422Z,10.47
2023-03-02T01:59:11.458Z,10.50
2023-03-02T02:01:41.402Z,11.20
2023-03-02T02:04:08.402Z,10.93
2023-03-02T02:06:39.699Z,11.17
2023-03-02T02:09:10.433Z,11.47
2023-03-02T02:11:41.995Z,13.77
2023-03-02T02:14:11.307Z,11.73
2023-03-02T02:16:40.813Z,11.90
2023-03-02T02:19:31.757Z,10.63
2023-03-02T02:21:58.512Z,11.83
2023-03-02T02:24:34.648Z,11.10
2023-03-02T02:27:01.539Z,13.40
2023-03-02T02:29:37.199Z,12.53
2023-03-02T02:32:12.426Z,11.90
2023-03-02T02:34:57.481Z,11.10
2023-03-02T02:37:31.134Z,10.97
2023-03-02T02:39:58.625Z,11.80
2023-03-02T02:42:35.640Z,11.00
2023-03-02T02:45:08.271Z,11.67
2023-03-02T02:47:35.517Z,11.53
2023-03-02T02:50:02.537Z,11.07
2023-03-02T02:52:31.589Z,11.60
2023-03-02T02:54:59.294Z,10.63
2023-03-02T02:57:28.892Z,12.15
2023-03-02T03:00:04.441Z,12.00
2023-03-02T03:02:34.705Z,10.70
2023-03-02T03:05:04.356Z,11.67
2023-03-02T03:07:34.912Z,11.03
2023-03-02T03:10:15.139Z,11.10
2023-03-02T03:12:42.600Z,10.33
2023-03-02T03:15:10.060Z,13.18
2023-03-02T03:17:36.711Z,13.63
2023-03-02T03:20:06.669Z,11.73
2023-03-02T03:22:42.477Z,11.67
2023-03-02T03:25:09.652Z,11.67
2023-03-02T03:27:36.317Z,11.30
2023-03-02T03:30:05.396Z,11.73
2023-03-02T03:32:34.380Z,11.43
2023-03-02T03:35:01.126Z,11.67
2023-03-02T03:37:32.527Z,11.23
2023-03-02T03:39:59.269Z,12.27
2023-03-02T03:42:25.997Z,11.77
2023-03-02T03:44:52.765Z,10.43
2023-03-02T03:47:19.450Z,11.53
2023-03-02T03:49:46.086Z,11.63
2023-03-02T03:52:12.848Z,11.33
2023-03-02T03:54:39.650Z,11.03
2023-03-02T03:57:10.630Z,10.90
2023-03-02T03:59:41.764Z,12.03
2023-03-02T04:02:08.551Z,13.15
2023-03-02T04:04:35.848Z,11.87
2023-03-02T04:07:04.742Z,11.47
2023-03-02T04:09:37.736Z,11.70
2023-03-02T04:12:05.564Z,10.83
2023-03-02T04:14:32.364Z,11.20
2023-03-02T04:17:01.356Z,11.07
2023-03-02T04:19:30.239Z,12.27
2023-03-02T04:21:58.448Z,11.20
2023-03-02T04:24:27.633Z,11.70
2023-03-02T04:26:56.881Z,11.47
2023-03-02T04:29:26.040Z,11.83
2023-03-02T04:31:52.830Z,12.03
2023-03-02T04:34:19.527Z,13.70
2023-03-02T04:36:49.382Z,11.87
2023-03-02T04:39:17.463Z,12.03
2023-03-02T04:41:44.536Z,11.07
2023-03-02T04:44:14.266Z,12.77
2023-03-02T04:46:44.549Z,12.07
2023-03-02T04:49:14.812Z,12.40
2023-03-02T04:51:45.711Z,12.00
2023-03-02T04:54:17.397Z,12.57
2023-03-02T04:56:48.270Z,11.73
2023-03-02T04:59:16.675Z,12.03
2023-03-02T05:01:44.486Z,12.00
2023-03-02T05:04:11.837Z,12.10
2023-03-02T05:06:38.935Z,12.03
2023-03-02T05:09:10.442Z,11.57
2023-03-02T05:11:40.210Z,12.63
2023-03-02T05:14:12.740Z,12.77
2023-03-02T05:16:41.743Z,13.20
2023-03-02T05:19:14.324Z,13.00
2023-03-02T05:21:41.112Z,12.13
2023-03-02T05:24:08.275Z,14.85
2023-03-02T05:26:38.028Z,13.20
2023-03-02T05:29:09.701Z,13.07
2023-03-02T05:31:40.714Z,13.10
2023-03-02T05:34:10.469Z,12.10
2023-03-02T05:36:37.786Z,12.40
2023-03-02T05:39:08.072Z,12.83
2023-03-02T05:41:37.982Z,13.07
2023-03-02T05:44:09.265Z,13.10
2023-03-02T05:46:38.610Z,13.17
2023-03-02T05:49:05.345Z,13.70
2023-03-02T05:51:32.148Z,13.20
2023-03-02T05:53:58.852Z,13.27
2023-03-02T05:56:26.014Z,14.03
2023-03-02T05:58:52.820Z,12.43
2023-03-02T06:01:21.699Z,12.73
2023-03-02T06:03:50.790Z,14.23
2023-03-02T06:06:17.816Z,13.03
2023-03-02T06:08:47.129Z,13.33
2023-03-02T06:11:13.891Z,16.10
2023-03-02T06:13:45.264Z,13.83
2023-03-02T06:16:12.043Z,14.30
2023-03-02T06:18:41.398Z,15.20
2023-03-02T06:21:08.697Z,13.27
2023-03-02T06:23:35.433Z,14.33
2023-03-02T06:26:09.012Z,13.77
2023-03-02T06:28:49.722Z,12.93
2023-03-02T06:31:20.577Z,13.40
2023-03-02T06:33:47.358Z,12.97
2023-03-02T06:36:15.066Z,12.53
2023-03-02T06:38:41.757Z,13.53
2023-03-02T06:41:08.512Z,13.87
2023-03-02T06:43:35.230Z,13.20
2023-03-02T06:46:02.340Z,13.73
2023-03-02T06:48:31.301Z,13.00
2023-03-02T06:51:00.538Z,14.50
2023-03-02T06:53:27.309Z,13.93
2023-03-02T06:55:54.206Z,12.97
2023-03-02T06:58:20.886Z,16.25
2023-03-02T07:00:47.682Z,14.67
2023-03-02T07:03:14.922Z,14.10
2023-03-02T07:05:43.093Z,13.67
2023-03-02T07:08:11.862Z,14.40
2023-03-02T07:10:38.613Z,14.80
2023-03-02T07:13:06.408Z,13.47
2023-03-02T07:15:34.857Z,16.55
2023-03-02T07:18:03.861Z,14.73
2023-03-02T07:20:30.972Z,14.00
2023-03-02T07:22:57.887Z,14.67
2023-03-02T07:25:24.553Z,14.23
2023-03-02T07:27:55.998Z,14.17
2023-03-02T07:30:27.403Z,14.30
2023-03-02T07:32:57.586Z,14.73
2023-03-02T07:35:24.571Z,14.37
2023-03-02T07:37:52.468Z,13.10
2023-03-02T07:40:20.056Z,14.17
2023-03-02T07:42:49.201Z,13.47
2023-03-02T07:45:16.974Z,16.50
2023-03-02T07:47:43.776Z,14.97
2023-03-02T07:50:13.483Z,14.57
2023-03-02T07:52:40.151Z,13.43
2023-03-02T07:55:07.183Z,14.23
2023-03-02T07:57:36.326Z,13.23
2023-03-02T08:00:04.080Z,13.98
2023-03-02T08:02:33.709Z,12.80
2023-03-02T08:05:00.446Z,13.93
2023-03-02T08:07:29.693Z,12.70
2023-03-02T08:10:00.836Z,13.07
2023-03-02T08:12:28.457Z,13.73
2023-03-02T08:14:55.544Z,13.97
2023-03-02T08:17:25.100Z,12.33
2023-03-02T08:19:51.790Z,14.37
2023-03-02T08:22:18.466Z,14.37
2023-03-02T08:24:45.346Z,13.30
2023-03-02T08:27:16.729Z,14.27
2023-03-02T08:29:48.032Z,15.32
2023-03-02T08:32:14.809Z,14.93
2023-03-02T08:34:41.474Z,13.10
2023-03-02T08:37:08.808Z,13.30
2023-03-02T08:39:38.033Z,12.97
2023-03-02T08:42:06.883Z,13.57
2023-03-02T08:44:33.726Z,13.13
2023-03-02T08:47:00.348Z,13.40
2023-03-02T08:49:27.626Z,14.03
2023-03-02T08:51:56.236Z,12.60
2023-03-02T08:54:23.094Z,13.33
2023-03-02T08:56:50.339Z,14.03
2023-03-02T08:59:17.292Z,13.60
2023-03-02T09:01:46.492Z,12.60
2023-03-02T09:04:17.784Z,12.00
2023-03-02T09:06:47.597Z,12.80
2023-03-02T09:09:15.325Z,12.50
2023-03-02T09:11:49.280Z,14.20
2023-03-02T09:14:18.384Z,13.73
2023-03-02T09:16:46.157Z,14.10
2023-03-02T09:19:13.813Z,13.43
2023-03-02T09:21:40.613Z,13.20
2023-03-02T09:24:07.446Z,13.50
2023-03-02T09:26:34.911Z,12.77
2023-03-02T09:29:03.779Z,14.25
2023-03-02T09:31:30.815Z,12.90
2023-03-02T09:33:57.626Z,12.80
2023-03-02T09:36:26.203Z,13.50
2023-03-02T09:38:53.693Z,12.23
2023-03-02T09:41:20.413Z,12.53
2023-03-02T09:44:14.602Z,12.73
2023-03-02T09:46:59.715Z,13.60
2023-03-02T09:49:38.273Z,12.77
2023-03-02T09:52:25.373Z,12.83
2023-03-02T09:54:52.124Z,15.00
2023-03-02T09:57:37.449Z,12.67
2023-03-02T10:00:21.439Z,13.70
2023-03-02T10:02:58.765Z,12.27
2023-03-02T10:05:35.449Z,13.23
2023-03-02T10:08:04.693Z,12.93
2023-03-02T10:10:40.255Z,12.83
2023-03-02T10:13:15.726Z,14.17
2023-03-02T10:16:04.276Z,14.47
2023-03-02T10:18:45.462Z,13.50
2023-03-02T10:21:27.274Z,13.07
2023-03-02T10:24:05.615Z,13.33
2023-03-02T10:26:44.852Z,13.47
2023-03-02T10:29:34.235Z,13.93
2023-03-02T10:32:10.004Z,13.07
2023-03-02T10:34:38.328Z,13.17
2023-03-02T10:37:28.417Z,12.87
2023-03-02T10:39:58.433Z,13.30
2023-03-02T10:42:36.851Z,13.73
2023-03-02T10:45:19.090Z,13.47
2023-03-02T10:47:45.795Z,13.03
2023-03-02T10:50:22.658Z,13.40
2023-03-02T10:52:59.794Z,14.10
2023-03-02T10:55:27.501Z,13.17
2023-03-02T10:58:02.480Z,12.87
2023-03-02T11:00:31.326Z,13.77
2023-03-02T11:03:06.790Z,11.87
2023-03-02T11:05:44.312Z,13.60
2023-03-02T11:08:25.667Z,13.23
2023-03-02T11:10:52.332Z,13.50
2023-03-02T11:13:26.652Z,13.40
2023-03-02T11:15:59.687Z,14.77
2023-03-02T11:18:43.161Z,12.67
2023-03-02T11:21:14.706Z,13.13
2023-03-02T11:23:50.156Z,12.00
2023-03-02T11:26:30.818Z,13.00
2023-03-02T11:29:30.875Z,12.27
2023-03-02T11:32:34.325Z,12.67
2023-03-02T11:35:14.662Z,14.40
2023-03-02T11:37:52.811Z,13.90
2023-03-02T11:40:30.304Z,12.70
2023-03-02T11:42:59.575Z,12.67
2023-03-02T11:45:32.592Z,12.60
2023-03-02T11:48:15.068Z,11.73
2023-03-02T11:50:56.188Z,12.73
2023-03-02T11:53:32.041Z,12.90
2023-03-02T11:56:00.972Z,13.73
2023-03-02T11:58:29.765Z,12.57
2023-03-02T12:00:57.903Z,13.40
2023-03-02T12:03:30.696Z,12.87
2023-03-02T12:06:07.282Z,14.27
2023-03-02T12:08:34.113Z,12.70
2023-03-02T12:11:21.053Z,13.03
2023-03-02T12:14:02.846Z,14.27
2023-03-02T12:16:37.934Z,12.03
2023-03-02T12:19:16.488Z,12.40
2023-03-02T12:22:09.011Z,12.87
2023-03-02T12:24:40.883Z,12.40
2023-03-02T12:27:13.474Z,12.03
2023-03-02T12:29:43.167Z,11.70
2023-03-02T12:32:31.002Z,12.37
2023-03-02T12:35:14.476Z,13.70
2023-03-02T12:38:19.372Z,13.07
2023-03-02T12:41:12.661Z,12.33
2023-03-02T12:44:04.758Z,12.67
2023-03-02T12:46:37.061Z,11.90
2023-03-02T12:49:11.577Z,12.87
2023-03-02T12:52:01.473Z,14.10
2023-03-02T12:54:31.152Z,12.33
2023-03-02T12:57:21.029Z,12.90
2023-03-02T12:59:56.860Z,14.93
2023-03-02T13:02:29.085Z,14.23
2023-03-02T13:05:09.178Z,14.10
2023-03-02T13:07:54.955Z,12.87
2023-03-02T13:10:27.632Z,13.33
2023-03-02T13:12:54.579Z,12.87
2023-03-02T13:15:21.421Z,13.50
2023-03-02T13:17:59.958Z,13.60
2023-03-02T13:20:32.480Z,13.73
2023-03-02T13:23:01.598Z,12.33
2023-03-02T13:25:33.437Z,13.07
2023-03-02T13:28:07.619Z,13.23
2023-03-02T13:30:37.417Z,12.97
2023-03-02T13:33:18.554Z,13.07
2023-03-02T13:35:47.342Z,13.17
2023-03-02T13:38:18.225Z,12.87
2023-03-02T13:40:51.350Z,12.93
2023-03-02T13:43:22.472Z,13.50
2023-03-02T13:46:02.157Z,13.23
2023-03-02T13:48:31.649Z,14.07
2023-03-02T13:51:04.417Z,15.55
2023-03-02T13:53:37.932Z,14.03
2023-03-02T13:56:07.427Z,14.07
2023-03-02T13:58:38.459Z,12.20
2023-03-02T14:01:06.189Z,13.83
2023-03-02T14:03:32.896Z,13.23
2023-03-02T14:06:02.793Z,13.27
2023-03-02T14:08:29.491Z,14.00
2023-03-02T14:10:58.348Z,13.77
2023-03-02T14:13:30.484Z,13.57
2023-03-02T14:15:57.476Z,14.50
2023-03-02T14:18:29.091Z,13.80
2023-03-02T14:20:58.435Z,13.67
2023-03-02T14:23:26.843Z,14.40
2023-03-02T14:25:55.234Z,14.27
2023-03-02T14:28:35.815Z,15.70
2023-03-02T14:31:02.509Z,14.57
2023-03-02T14:33:29.297Z,13.50
2023-03-02T14:36:00.478Z,14.03
2023-03-02T14:38:30.446Z,14.50
2023-03-02T14:40:59.403Z,15.13
2023-03-02T14:43:30.600Z,15.00
2023-03-02T14:45:57.400Z,13.27
2023-03-02T14:48:24.070Z,14.20
2023-03-02T14:50:56.577Z,14.60
2023-03-02T14:53:29.782Z,13.40
2023-03-02T14:55:56.552Z,13.13
2023-03-02T14:58:34.195Z,13.73
2023-03-02T15:01:01.236Z,14.03
2023-03-02T15:03:29.282Z,14.07
2023-03-02T15:06:02.196Z,16.48
2023-03-02T15:08:32.001Z,14.37
2023-03-02T15:10:58.650Z,13.70
2023-03-02T15:13:27.577Z,13.47
2023-03-02T15:15:56.871Z,13.87
2023-03-02T15:18:26.102Z,13.20
2023-03-02T15:20:54.946Z,14.80
2023-03-02T15:23:21.593Z,13.53
2023-03-02T15:25:50.678Z,13.27
2023-03-02T15:28:17.331Z,13.97
2023-03-02T15:30:51.192Z,13.70
2023-03-02T15:33:20.046Z,14.07
2023-03-02T15:35:54.284Z,13.67
2023-03-02T15:38:21.890Z,14.37
2023-03-02T15:40:48.581Z,13.50
2023-03-02T15:43:15.274Z,15.80
2023-03-02T15:45:50.837Z,14.33
2023-03-02T15:48:22.418Z,13.43
2023-03-02T15:51:01.865Z,14.17
2023-03-02T15:53:29.997Z,13.40
2023-03-02T15:55:56.976Z,13.63
2023-03-02T15:58:23.884Z,14.07
2023-03-02T16:00:53.877Z,13.47
2023-03-02T16:03:25.559Z,15.30
2023-03-02T16:05:56.991Z,14.57
2023-03-02T16:08:23.648Z,14.57
2023-03-02T16:11:01.583Z,14.13
2023-03-02T16:13:30.375Z,13.97
2023-03-02T16:16:02.551Z,14.30
2023-03-02T16:18:29.530Z,14.13
2023-03-02T16:20:56.284Z,14.17
2023-03-02T16:23:25.500Z,14.43
2023-03-02T16:26:08.177Z,13.10
2023-03-02T16:28:34.926Z,13.53
2023-03-02T16:31:06.184Z,13.87
2023-03-02T16:33:33.347Z,14.30
2023-03-02T16:35:59.991Z,16.10
2023-03-02T16:38:26.786Z,14.93
2023-03-02T16:40:54.992Z,14.97
2023-03-02T16:43:24.447Z,14.87
2023-03-02T16:45:52.046Z,15.33
2023-03-02T16:48:19.309Z,15.00
2023-03-02T16:50:48.212Z,14.10
2023-03-02T16:53:19.296Z,14.90
2023-03-02T16:55:46.006Z,15.10
2023-03-02T16:58:14.878Z,14.23
2023-03-02T17:00:42.607Z,15.60
2023-03-02T17:03:09.392Z,14.10
2023-03-02T17:05:42.594Z,14.80
2023-03-02T17:08:11.145Z,14.03
2023-03-02T17:10:38.214Z,14.00
2023-03-02T17:13:05.878Z,15.07
2023-03-02T17:15:33.191Z,15.53
2023-03-02T17:17:59.920Z,14.17
2023-03-02T17:20:27.016Z,14.03
2023-03-02T17:22:53.918Z,13.47
2023-03-02T17:25:23.112Z,13.40
2023-03-02T17:27:51.975Z,13.97
2023-03-02T17:30:21.535Z,12.93
2023-03-02T17:32:48.687Z,12.73
2023-03-02T17:35:16.063Z,13.10
2023-03-02T17:37:42.983Z,11.83
2023-03-02T17:40:16.511Z,12.57
2023-03-02T17:42:43.547Z,12.03
2023-03-02T17:45:24.179Z,12.30
2023-03-02T17:47:55.038Z,11.57
2023-03-02T17:50:27.385Z,11.80
2023-03-02T17:52:55.219Z,12.53
2023-03-02T17:55:21.984Z,12.67
2023-03-02T17:57:51.000Z,11.70
2023-03-02T18:00:20.611Z,11.03
2023-03-02T18:02:47.881Z,11.47
2023-03-02T18:05:14.659Z,11.40
2023-03-02T18:07:41.366Z,11.63
2023-03-02T18:10:11.230Z,11.17
2023-03-02T18:12:38.005Z,11.40
2023-03-02T18:15:05.412Z,11.37
2023-03-02T18:17:32.111Z,11.40
2023-03-02T18:19:58.823Z,10.93
2023-03-02T18:22:25.476Z,10.80
2023-03-02T18:24:56.996Z,11.60
2023-03-02T18:27:23.795Z,11.77
2023-03-02T18:29:50.497Z,10.47
2023-03-02T18:32:19.506Z,12.93
2023-03-02T18:34:49.155Z,10.77
2023-03-02T18:37:18.415Z,11.40
2023-03-02T18:39:48.076Z,11.83
2023-03-02T18:42:17.024Z,10.97
2023-03-02T18:44:43.996Z,11.50
2023-03-02T18:47:16.382Z,11.57
2023-03-02T18:49:49.710Z,12.07
2023-03-02T18:52:18.893Z,11.87
2023-03-02T18:54:49.458Z,10.93
2023-03-02T18:57:18.671Z,12.50
2023-03-02T18:59:47.535Z,11.30
2023-03-02T19:02:14.594Z,11.37
2023-03-02T19:04:43.784Z,11.47
2023-03-02T19:07:12.925Z,11.07
2023-03-02T19:09:39.624Z,11.37
2023-03-02T19:12:06.518Z,12.23
2023-03-02T19:14:33.402Z,11.10
2023-03-02T19:17:00.858Z,12.53
2023-03-02T19:19:27.536Z,11.03
2023-03-02T19:21:54.246Z,11.77
2023-03-02T19:24:23.027Z,12.33
2023-03-02T19:26:52.297Z,11.83
2023-03-02T19:29:22.892Z,11.70
2023-03-02T19:31:49.869Z,11.80
2023-03-02T19:34:16.596Z,12.13
2023-03-02T19:36:46.587Z,11.47
2023-03-02T19:39:16.188Z,13.30
2023-03-02T19:41:47.657Z,11.83
2023-03-02T19:44:16.718Z,11.80
2023-03-02T19:46:45.628Z,11.20
2023-03-02T19:49:14.611Z,11.70
2023-03-02T19:51:43.637Z,12.00
2023-03-02T19:54:10.304Z,11.98
2023-03-02T19:56:39.666Z,12.23
2023-03-02T19:59:09.406Z,11.33
2023-03-02T20:01:36.285Z,12.10
2023-03-02T20:04:03.617Z,12.50
2023-03-02T20:06:32.671Z,12.13
2023-03-02T20:09:02.439Z,10.97
2023-03-02T20:11:31.503Z,12.03
2023-03-02T20:14:04.580Z,11.70
2023-03-02T20:16:35.732Z,12.63
2023-03-02T20:19:07.998Z,12.47
2023-03-02T20:21:37.854Z,13.35
2023-03-02T20:24:07.581Z,12.40
2023-03-02T20:26:36.809Z,12.30
2023-03-02T20:29:05.217Z,12.20
2023-03-02T20:31:33.620Z,12.57
2023-03-02T20:34:03.103Z,13.27
2023-03-02T20:36:33.098Z,12.13
2023-03-02T20:39:31.423Z,12.63
2023-03-02T20:42:01.388Z,12.37
2023-03-02T20:44:33.241Z,11.97
2023-03-02T20:47:03.314Z,11.87
2023-03-02T20:49:31.138Z,12.80
2023-03-02T20:51:59.524Z,12.43
2023-03-02T20:54:31.408Z,12.50
2023-03-02T20:56:59.274Z,12.00
2023-03-02T20:59:26.210Z,12.30
2023-03-02T21:01:56.467Z,12.53
2023-03-02T21:04:23.349Z,11.77
2023-03-02T21:06:50.879Z,11.70
2023-03-02T21:09:20.724Z,12.33
2023-03-02T21:11:47.863Z,12.53
2023-03-02T21:14:15.356Z,11.90
2023-03-02T21:16:44.253Z,11.00
2023-03-02T21:19:16.443Z,12.10
2023-03-02T21:21:43.918Z,12.20
2023-03-02T21:24:13.338Z,12.53
2023-03-02T21:26:44.246Z,11.90
2023-03-02T21:29:12.909Z,12.03
2023-03-02T21:31:42.228Z,12.90
2023-03-02T21:34:09.585Z,11.87
2023-03-02T21:36:36.640Z,12.63
2023-03-02T21:39:11.785Z,12.37
2023-03-02T21:41:38.680Z,12.60
2023-03-02T21:44:08.244Z,13.20
2023-03-02T21:46:36.554Z,12.13
2023-03-02T21:49:06.136Z,13.95
2023-03-02T21:51:33.722Z,12.80
2023-03-02T21:54:03.060Z,12.40
2023-03-02T21:56:29.812Z,11.97
2023-03-02T21:58:57.267Z,11.57
2023-03-02T22:01:29.590Z,12.23
2023-03-02T22:03:56.440Z,13.50
2023-03-02T22:06:28.383Z,11.37
2023-03-02T22:08:57.635Z,12.03
2023-03-02T22:11:29.888Z,11.93
2023-03-02T22:14:03.706Z,12.27
2023-03-02T22:16:39.205Z,12.43
2023-03-02T22:19:24.641Z,12.17
2023-03-02T22:21:52.575Z,11.73
2023-03-02T22:24:25.701Z,12.73
2023-03-02T22:26:56.989Z,12.70
2023-03-02T22:29:30.696Z,12.57
2023-03-02T22:32:06.543Z,12.80
2023-03-02T22:34:36.460Z,12.23
2023-03-02T22:37:10.966Z,12.13
2023-03-02T22:39:42.618Z,12.37
2023-03-02T22:42:18.987Z,12.17
2023-03-02T22:45:14.536Z,12.47
2023-03-02T22:47:51.227Z,12.67
2023-03-02T22:50:29.103Z,14.80
2023-03-02T22:53:05.117Z,12.93
2023-03-02T22:55:37.592Z,13.53
2023-03-02T22:58:42.573Z,12.40
2023-03-02T23:01:38.298Z,12.10
2023-03-02T23:04:25.288Z,12.03
2023-03-02T23:07:00.004Z,12.90
2023-03-02T23:09:37.443Z,12.87
2023-03-02T23:12:33.174Z,12.30
2023-03-02T23:15:00.007Z,13.00
2023-03-02T23:17:38.879Z,14.00
2023-03-02T23:20:11.695Z,12.63
2023-03-02T23:22:40.528Z,13.40
2023-03-02T23:25:08.652Z,12.47
2023-03-02T23:27:35.502Z,12.10
2023-03-02T23:30:05.477Z,12.23
2023-03-02T23:32:34.950Z,12.13
2023-03-02T23:35:03.824Z,14.88
2023-03-02T23:37:33.086Z,12.20
2023-03-02T23:40:00.433Z,12.67
2023-03-02T23:42:29.596Z,13.03
2023-03-02T23:44:56.248Z,12.37
2023-03-02T23:47:22.901Z,12.77
2023-03-02T23:49:51.888Z,12.50
2023-03-02T23:52:18.577Z,13.13
2023-03-02T23:54:46.173Z,12.90
2023-03-02T23:57:15.293Z,13.70
2023-03-02T23:59:42.064Z,13.47
